map of BDU home
BDU - Airport
Location
City:  Bardufoss, Norway
ICAO:ENDU
IATA:BDU

Details
Type:Airport (Aerodrome, Airfield)
Use:Public/Civil, Military, International (customs port of entry)
Latitude:6903'21"N (69.055758)
Longitude:1832'25"E (18.540356)
Datum:WGS 1984
Elevation:252 ft (77 m)
Variation:8.89E (WMM2015v2 magnetic declination)
0.27 annual change
Runways:1
Longest:8015 × 148 ft (2443 × 45 m), paved

Time
Time Zone:UTC+1 (DST+2)
Local Time:

Weather
METAR:ENDU 041350Z 00000KT 9999 FEW050 M13/M19 Q1015 NOSIG RMK WIND 1100FT 08006KT WIND 2200FT 12028KT
TAF:ENDU 041100Z 0412/0512 13008KT CAVOK
TEMPO 0412/0418 12015G25KT

Related Locations
Nearby:
Farthest:NZTB: 11608 mi / 18682 km
Terra Nova Bay [Mario Zucchelli Station], AQ

Find:

   beyond  
but within

Other Information
Maps:
NOTAMs:
Links:
Sources:

  
  • flag of Norway
  

Airport Diagram

Airport diagram for BDU

Larger airport diagram (OBSOLETE) from NGA

Sectional Chart

Flight Planning
at skyvector.com

Satellite Image

Google Maps Satellite view

 

Copyright © 2004-2019 Karl L. Swartz. All rights reserved.
The Great Circle Mapper name and logo are trademarks of the Great Circle Mapper.
All other trademarks mentioned herein belong to their respective owners.
Please see credits for attibutions and further copyright information.

  Follow gcmap on Facebook Follow gcmap on Twitter GCmap on LinkedIn

hCard Microformat

Geo Microformat